sensor_id;sensor_type;location;lat;lon;timestamp;pressure;altitude;pressure_sealevel;temperature;humidity
71974;BME280;59840;52.122;5.404;2023-06-10T00:00:07;101606.91;;;20.51;55.66
71974;BME280;59840;52.122;5.404;2023-06-10T00:02:34;101611.19;;;20.52;55.05
71974;BME280;59840;52.122;5.404;2023-06-10T00:05:01;101606.19;;;20.46;55.39
71974;BME280;59840;52.122;5.404;2023-06-10T00:07:28;101611.88;;;20.44;54.86
71974;BME280;59840;52.122;5.404;2023-06-10T00:09:55;101610.28;;;20.43;54.79
71974;BME280;59840;52.122;5.404;2023-06-10T00:12:21;101615.63;;;20.43;54.67
71974;BME280;59840;52.122;5.404;2023-06-10T00:14:48;101609.19;;;20.44;54.66
71974;BME280;59840;52.122;5.404;2023-06-10T00:17:16;101616.09;;;20.45;54.68
71974;BME280;59840;52.122;5.404;2023-06-10T00:19:43;101611.88;;;20.44;54.83
71974;BME280;59840;52.122;5.404;2023-06-10T00:22:13;101619.91;;;20.44;54.01
71974;BME280;59840;52.122;5.404;2023-06-10T00:24:40;101616.72;;;20.42;54.02
71974;BME280;59840;52.122;5.404;2023-06-10T00:27:08;101613.56;;;20.35;53.75
71974;BME280;59840;52.122;5.404;2023-06-10T00:29:34;101614.06;;;20.37;53.97
71974;BME280;59840;52.122;5.404;2023-06-10T00:32:02;101623.47;;;20.39;54.21
71974;BME280;59840;52.122;5.404;2023-06-10T00:34:28;101612.72;;;20.39;53.93
71974;BME280;59840;52.122;5.404;2023-06-10T00:36:55;101620.81;;;20.34;54.19
71974;BME280;59840;52.122;5.404;2023-06-10T00:39:22;101621.97;;;20.28;53.69
71974;BME280;59840;52.122;5.404;2023-06-10T00:41:49;101621.75;;;20.25;53.64
71974;BME280;59840;52.122;5.404;2023-06-10T00:44:16;101622.41;;;20.17;54.84
71974;BME280;59840;52.122;5.404;2023-06-10T00:46:42;101627.25;;;20.15;53.90
71974;BME280;59840;52.122;5.404;2023-06-10T00:49:09;101623.25;;;20.12;53.64
71974;BME280;59840;52.122;5.404;2023-06-10T00:51:36;101628.31;;;20.14;53.47
71974;BME280;59840;52.122;5.404;2023-06-10T00:54:04;101625.66;;;20.14;53.28
71974;BME280;59840;52.122;5.404;2023-06-10T00:56:31;101622.25;;;20.08;53.36
71974;BME280;59840;52.122;5.404;2023-06-10T00:58:59;101615.38;;;20.02;53.30
71974;BME280;59840;52.122;5.404;2023-06-10T01:01:26;101619.44;;;19.99;52.44
71974;BME280;59840;52.122;5.404;2023-06-10T01:03:53;101626.31;;;20.05;52.08
71974;BME280;59840;52.122;5.404;2023-06-10T01:09:02;101616.69;;;20.04;51.78
71974;BME280;59840;52.122;5.404;2023-06-10T01:12:05;101615.81;;;20.09;51.58
71974;BME280;59840;52.122;5.404;2023-06-10T01:14:38;101619.59;;;20.08;50.93
71974;BME280;59840;52.122;5.404;2023-06-10T01:17:11;101625.22;;;20.06;51.08
71974;BME280;59840;52.122;5.404;2023-06-10T01:19:38;101619.88;;;20.06;51.27
71974;BME280;59840;52.122;5.404;2023-06-10T01:22:05;101627.41;;;20.04;50.98
71974;BME280;59840;52.122;5.404;2023-06-10T01:24:32;101631.69;;;20.05;51.01
71974;BME280;59840;52.122;5.404;2023-06-10T01:27:03;101630.09;;;20.04;51.29
71974;BME280;59840;52.122;5.404;2023-06-10T01:30:07;101631.97;;;20.04;51.97
71974;BME280;59840;52.122;5.404;2023-06-10T01:32:40;101631.75;;;20.00;52.07
71974;BME280;59840;52.122;5.404;2023-06-10T01:35:10;101630.19;;;19.94;51.74
71974;BME280;59840;52.122;5.404;2023-06-10T01:37:43;101628.31;;;19.95;51.65
71974;BME280;59840;52.122;5.404;2023-06-10T01:40:11;101632.31;;;19.97;51.35
71974;BME280;59840;52.122;5.404;2023-06-10T01:42:38;101624.13;;;19.89;53.15
71974;BME280;59840;52.122;5.404;2023-06-10T01:45:05;101629.81;;;19.82;52.51
71974;BME280;59840;52.122;5.404;2023-06-10T01:47:33;101632.53;;;19.77;52.11
71974;BME280;59840;52.122;5.404;2023-06-10T01:49:59;101630.47;;;19.74;53.07
71974;BME280;59840;52.122;5.404;2023-06-10T01:52:26;101640.16;;;19.70;52.89
71974;BME280;59840;52.122;5.404;2023-06-10T01:54:53;101632.13;;;19.70;52.99
71974;BME280;59840;52.122;5.404;2023-06-10T01:57:19;101628.19;;;19.62;54.08
71974;BME280;59840;52.122;5.404;2023-06-10T01:59:46;101637.00;;;19.63;53.72
71974;BME280;59840;52.122;5.404;2023-06-10T02:02:13;101630.69;;;19.54;55.09
71974;BME280;59840;52.122;5.404;2023-06-10T02:04:39;101631.84;;;19.42;54.91
71974;BME280;59840;52.122;5.404;2023-06-10T02:07:06;101642.34;;;19.39;56.25
71974;BME280;59840;52.122;5.404;2023-06-10T02:09:32;101633.56;;;19.33;55.52
71974;BME280;59840;52.122;5.404;2023-06-10T02:12:04;101636.81;;;19.30;55.93
71974;BME280;59840;52.122;5.404;2023-06-10T02:14:33;101633.03;;;19.31;55.02
71974;BME280;59840;52.122;5.404;2023-06-10T02:16:59;101631.97;;;19.32;55.55
71974;BME280;59840;52.122;5.404;2023-06-10T02:19:27;101638.97;;;19.28;56.01
71974;BME280;59840;52.122;5.404;2023-06-10T02:21:53;101638.44;;;19.26;55.76
71974;BME280;59840;52.122;5.404;2023-06-10T02:24:20;101642.75;;;19.22;55.99
71974;BME280;59840;52.122;5.404;2023-06-10T02:26:47;101643.88;;;19.16;56.42
71974;BME280;59840;52.122;5.404;2023-06-10T02:29:14;101645.00;;;19.10;56.58
71974;BME280;59840;52.122;5.404;2023-06-10T02:31:40;101648.75;;;19.09;56.29
71974;BME280;59840;52.122;5.404;2023-06-10T02:34:07;101648.31;;;19.02;56.49
71974;BME280;59840;52.122;5.404;2023-06-10T02:36:35;101660.38;;;18.99;57.13
71974;BME280;59840;52.122;5.404;2023-06-10T02:39:02;101656.63;;;19.00;56.92
71974;BME280;59840;52.122;5.404;2023-06-10T02:41:30;101659.59;;;18.94;57.20
71974;BME280;59840;52.122;5.404;2023-06-10T02:43:57;101649.75;;;18.89;57.52
71974;BME280;59840;52.122;5.404;2023-06-10T02:46:23;101649.78;;;18.84;57.37
71974;BME280;59840;52.122;5.404;2023-06-10T02:48:50;101653.81;;;18.82;57.74
71974;BME280;59840;52.122;5.404;2023-06-10T02:51:18;101651.66;;;18.84;57.55
71974;BME280;59840;52.122;5.404;2023-06-10T02:53:45;101659.44;;;18.80;58.10
71974;BME280;59840;52.122;5.404;2023-06-10T02:56:12;101665.09;;;18.73;58.83
71974;BME280;59840;52.122;5.404;2023-06-10T02:58:38;101652.06;;;18.67;58.72
71974;BME280;59840;52.122;5.404;2023-06-10T03:01:05;101651.56;;;18.60;59.26
71974;BME280;59840;52.122;5.404;2023-06-10T03:03:32;101648.34;;;18.58;58.81
71974;BME280;59840;52.122;5.404;2023-06-10T03:06:00;101653.97;;;18.56;59.21
71974;BME280;59840;52.122;5.404;2023-06-10T03:08:27;101659.88;;;18.53;59.23
71974;BME280;59840;52.122;5.404;2023-06-10T03:10:53;101654.78;;;18.52;59.06
71974;BME280;59840;52.122;5.404;2023-06-10T03:13:20;101650.53;;;18.51;59.33
71974;BME280;59840;52.122;5.404;2023-06-10T03:15:48;101651.31;;;18.51;59.28
71974;BME280;59840;52.122;5.404;2023-06-10T03:18:15;101657.75;;;18.50;59.56
71974;BME280;59840;52.122;5.404;2023-06-10T03:20:42;101658.84;;;18.44;59.94
71974;BME280;59840;52.122;5.404;2023-06-10T03:23:10;101654.31;;;18.45;60.37
71974;BME280;59840;52.122;5.404;2023-06-10T03:25:37;101658.06;;;18.38;60.29
71974;BME280;59840;52.122;5.404;2023-06-10T03:28:04;101655.69;;;18.37;60.67
71974;BME280;59840;52.122;5.404;2023-06-10T03:30:31;101666.88;;;18.39;60.98
71974;BME280;59840;52.122;5.404;2023-06-10T03:32:57;101657.50;;;18.47;60.18
71974;BME280;59840;52.122;5.404;2023-06-10T03:35:24;101664.69;;;18.51;59.94
71974;BME280;59840;52.122;5.404;2023-06-10T03:37:50;101656.63;;;18.56;59.78
71974;BME280;59840;52.122;5.404;2023-06-10T03:40:17;101663.06;;;18.55;60.25
71974;BME280;59840;52.122;5.404;2023-06-10T03:42:44;101660.66;;;18.54;60.43
71974;BME280;59840;52.122;5.404;2023-06-10T03:45:10;101664.97;;;18.50;61.13
71974;BME280;59840;52.122;5.404;2023-06-10T03:47:38;101670.03;;;18.51;60.32
71974;BME280;59840;52.122;5.404;2023-06-10T03:50:05;101675.41;;;18.46;61.38
71974;BME280;59840;52.122;5.404;2023-06-10T03:52:31;101676.22;;;18.41;61.08
71974;BME280;59840;52.122;5.404;2023-06-10T03:54:58;101677.84;;;18.37;61.43
71974;BME280;59840;52.122;5.404;2023-06-10T03:57:25;101672.28;;;18.34;61.77
71974;BME280;59840;52.122;5.404;2023-06-10T03:59:52;101674.91;;;18.39;61.25
71974;BME280;59840;52.122;5.404;2023-06-10T04:02:18;101677.81;;;18.42;61.03
71974;BME280;59840;52.122;5.404;2023-06-10T04:04:45;101678.31;;;18.50;61.60
71974;BME280;59840;52.122;5.404;2023-06-10T04:07:12;101676.19;;;18.52;61.47
71974;BME280;59840;52.122;5.404;2023-06-10T04:09:40;101671.31;;;18.59;61.76
71974;BME280;59840;52.122;5.404;2023-06-10T04:12:07;101677.72;;;18.68;61.38
71974;BME280;59840;52.122;5.404;2023-06-10T04:14:35;101679.31;;;18.69;61.12
71974;BME280;59840;52.122;5.404;2023-06-10T04:17:05;101679.03;;;18.70;62.00
71974;BME280;59840;52.122;5.404;2023-06-10T04:19:35;101673.91;;;18.74;61.70
71974;BME280;59840;52.122;5.404;2023-06-10T04:22:01;101684.06;;;18.77;61.41
71974;BME280;59840;52.122;5.404;2023-06-10T04:24:31;101682.16;;;18.83;61.04
71974;BME280;59840;52.122;5.404;2023-06-10T04:26:58;101682.94;;;18.83;61.75
71974;BME280;59840;52.122;5.404;2023-06-10T04:29:24;101691.22;;;18.87;61.55
71974;BME280;59840;52.122;5.404;2023-06-10T04:31:51;101689.28;;;18.97;61.89
71974;BME280;59840;52.122;5.404;2023-06-10T04:34:18;101688.84;;;19.14;62.00
71974;BME280;59840;52.122;5.404;2023-06-10T04:36:44;101686.84;;;19.30;60.67
71974;BME280;59840;52.122;5.404;2023-06-10T04:39:11;101693.03;;;19.25;60.21
71974;BME280;59840;52.122;5.404;2023-06-10T04:41:38;101704.84;;;19.19;60.61
71974;BME280;59840;52.122;5.404;2023-06-10T04:44:04;101694.28;;;19.38;60.40
71974;BME280;59840;52.122;5.404;2023-06-10T04:46:31;101693.13;;;19.44;60.89
71974;BME280;59840;52.122;5.404;2023-06-10T04:48:58;101697.94;;;19.42;60.84
71974;BME280;59840;52.122;5.404;2023-06-10T04:51:24;101699.84;;;19.41;60.95
71974;BME280;59840;52.122;5.404;2023-06-10T04:53:52;101697.78;;;19.33;60.85
71974;BME280;59840;52.122;5.404;2023-06-10T04:56:19;101697.78;;;19.33;61.59
71974;BME280;59840;52.122;5.404;2023-06-10T04:58:46;101699.56;;;19.43;60.57
71974;BME280;59840;52.122;5.404;2023-06-10T05:01:13;101698.19;;;19.51;61.50
71974;BME280;59840;52.122;5.404;2023-06-10T05:03:39;101707.25;;;19.50;61.90
71974;BME280;59840;52.122;5.404;2023-06-10T05:06:06;101707.47;;;19.58;61.13
71974;BME280;59840;52.122;5.404;2023-06-10T05:08:33;101706.69;;;19.58;60.47
71974;BME280;59840;52.122;5.404;2023-06-10T05:11:00;101705.22;;;19.70;62.25
71974;BME280;59840;52.122;5.404;2023-06-10T05:13:27;101707.75;;;19.81;60.45
71974;BME280;59840;52.122;5.404;2023-06-10T05:15:53;101708.00;;;20.08;60.39
71974;BME280;59840;52.122;5.404;2023-06-10T05:18:20;101699.91;;;20.32;59.60
71974;BME280;59840;52.122;5.404;2023-06-10T05:20:47;101706.78;;;20.43;58.06
71974;BME280;59840;52.122;5.404;2023-06-10T05:23:14;101704.91;;;20.44;59.61
71974;BME280;59840;52.122;5.404;2023-06-10T05:25:40;101703.22;;;20.24;60.12
71974;BME280;59840;52.122;5.404;2023-06-10T05:28:08;101702.28;;;20.15;59.62
71974;BME280;59840;52.122;5.404;2023-06-10T05:30:40;101703.72;;;20.07;60.31
71974;BME280;59840;52.122;5.404;2023-06-10T05:33:07;101700.81;;;20.03;59.87
71974;BME280;59840;52.122;5.404;2023-06-10T05:35:34;101699.06;;;19.94;60.47
71974;BME280;59840;52.122;5.404;2023-06-10T05:38:00;101711.88;;;19.97;60.58
71974;BME280;59840;52.122;5.404;2023-06-10T05:40:29;101711.94;;;19.92;60.50
71974;BME280;59840;52.122;5.404;2023-06-10T05:42:56;101708.69;;;19.95;61.40
71974;BME280;59840;52.122;5.404;2023-06-10T05:45:22;101711.88;;;19.97;61.57
71974;BME280;59840;52.122;5.404;2023-06-10T05:47:49;101716.91;;;20.03;61.35
71974;BME280;59840;52.122;5.404;2023-06-10T05:50:15;101720.66;;;20.02;60.61
71974;BME280;59840;52.122;5.404;2023-06-10T05:52:42;101715.59;;;20.01;61.03
71974;BME280;59840;52.122;5.404;2023-06-10T05:55:09;101715.34;;;19.97;60.44
71974;BME280;59840;52.122;5.404;2023-06-10T05:57:36;101721.00;;;19.96;60.42
71974;BME280;59840;52.122;5.404;2023-06-10T06:00:03;101719.56;;;20.03;60.70
71974;BME280;59840;52.122;5.404;2023-06-10T06:02:30;101711.97;;;20.11;60.36
71974;BME280;59840;52.122;5.404;2023-06-10T06:04:57;101715.94;;;20.13;60.54
71974;BME280;59840;52.122;5.404;2023-06-10T06:07:24;101713.78;;;20.15;60.28
71974;BME280;59840;52.122;5.404;2023-06-10T06:09:51;101714.59;;;20.16;60.55
71974;BME280;59840;52.122;5.404;2023-06-10T06:12:17;101712.19;;;20.14;60.35
71974;BME280;59840;52.122;5.404;2023-06-10T06:14:44;101715.94;;;20.13;61.03
71974;BME280;59840;52.122;5.404;2023-06-10T06:17:11;101713.22;;;20.18;60.07
71974;BME280;59840;52.122;5.404;2023-06-10T06:19:37;101714.59;;;20.16;60.28
71974;BME280;59840;52.122;5.404;2023-06-10T06:22:04;101712.47;;;20.13;60.49
71974;BME280;59840;52.122;5.404;2023-06-10T06:24:31;101711.91;;;20.16;60.57
71974;BME280;59840;52.122;5.404;2023-06-10T06:26:57;101703.06;;;20.15;60.28
71974;BME280;59840;52.122;5.404;2023-06-10T06:29:24;101715.09;;;20.18;60.46
71974;BME280;59840;52.122;5.404;2023-06-10T06:31:50;101708.81;;;20.27;60.54
71974;BME280;59840;52.122;5.404;2023-06-10T06:34:17;101707.16;;;20.31;59.86
71974;BME280;59840;52.122;5.404;2023-06-10T06:36:44;101702.09;;;20.30;59.53
71974;BME280;59840;52.122;5.404;2023-06-10T06:39:10;101705.84;;;20.29;59.03
71974;BME280;59840;52.122;5.404;2023-06-10T06:41:37;101703.41;;;20.32;59.71
71974;BME280;59840;52.122;5.404;2023-06-10T06:44:04;101707.88;;;20.42;59.68
71974;BME280;59840;52.122;5.404;2023-06-10T06:46:30;101702.91;;;20.49;59.31
71974;BME280;59840;52.122;5.404;2023-06-10T06:48:57;101710.31;;;20.57;59.17
71974;BME280;59840;52.122;5.404;2023-06-10T06:51:24;101710.75;;;20.64;59.13
71974;BME280;59840;52.122;5.404;2023-06-10T06:53:50;101704.53;;;20.69;60.01
71974;BME280;59840;52.122;5.404;2023-06-10T06:56:17;101710.09;;;20.72;58.31
71974;BME280;59840;52.122;5.404;2023-06-10T06:58:44;101710.09;;;20.72;58.72
71974;BME280;59840;52.122;5.404;2023-06-10T07:01:10;101715.69;;;20.76;59.36
71974;BME280;59840;52.122;5.404;2023-06-10T07:03:37;101715.81;;;20.85;58.78
71974;BME280;59840;52.122;5.404;2023-06-10T07:06:04;101707.91;;;20.93;58.67
71974;BME280;59840;52.122;5.404;2023-06-10T07:08:30;101715.16;;;20.93;57.61
71974;BME280;59840;52.122;5.404;2023-06-10T07:10:57;101718.25;;;21.00;58.19
71974;BME280;59840;52.122;5.404;2023-06-10T07:13:23;101718.09;;;21.10;58.42
71974;BME280;59840;52.122;5.404;2023-06-10T07:15:50;101719.09;;;21.14;57.86
71974;BME280;59840;52.122;5.404;2023-06-10T07:18:17;101723.59;;;21.19;59.36
71974;BME280;59840;52.122;5.404;2023-06-10T07:20:43;101720.56;;;21.25;57.43
71974;BME280;59840;52.122;5.404;2023-06-10T07:23:10;101723.25;;;21.25;57.25
71974;BME280;59840;52.122;5.404;2023-06-10T07:25:37;101717.88;;;21.25;56.81
71974;BME280;59840;52.122;5.404;2023-06-10T07:28:04;101719.59;;;21.35;56.86
71974;BME280;59840;52.122;5.404;2023-06-10T07:30:30;101723.78;;;21.41;56.83
71974;BME280;59840;52.122;5.404;2023-06-10T07:32:57;101726.56;;;21.50;57.13
71974;BME280;59840;52.122;5.404;2023-06-10T07:35:24;101722.19;;;21.54;57.35
71974;BME280;59840;52.122;5.404;2023-06-10T07:37:51;101723.69;;;21.60;55.60
71974;BME280;59840;52.122;5.404;2023-06-10T07:40:17;101725.22;;;21.66;56.03
71974;BME280;59840;52.122;5.404;2023-06-10T07:42:44;101722.22;;;21.67;55.61
71974;BME280;59840;52.122;5.404;2023-06-10T07:45:11;101726.13;;;21.75;57.18
71974;BME280;59840;52.122;5.404;2023-06-10T07:47:37;101726.41;;;21.87;56.16
71974;BME280;59840;52.122;5.404;2023-06-10T07:50:04;101727.09;;;21.93;55.56
71974;BME280;59840;52.122;5.404;2023-06-10T07:52:31;101730.78;;;21.97;55.46
71974;BME280;59840;52.122;5.404;2023-06-10T07:54:58;101727.13;;;22.06;54.68
71974;BME280;59840;52.122;5.404;2023-06-10T07:57:24;101730.44;;;22.03;54.93
71974;BME280;59840;52.122;5.404;2023-06-10T07:59:51;101732.81;;;22.05;56.42
71974;BME280;59840;52.122;5.404;2023-06-10T08:02:18;101732.63;;;22.15;55.34
71974;BME280;59840;52.122;5.404;2023-06-10T08:04:45;101734.78;;;22.27;54.24
71974;BME280;59840;52.122;5.404;2023-06-10T08:07:11;101728.59;;;22.40;55.37
71974;BME280;59840;52.122;5.404;2023-06-10T08:09:38;101728.97;;;22.47;54.75
71974;BME280;59840;52.122;5.404;2023-06-10T08:12:05;101732.91;;;22.63;53.95
71974;BME280;59840;52.122;5.404;2023-06-10T08:14:32;101727.50;;;22.77;54.54
71974;BME280;59840;52.122;5.404;2023-06-10T08:16:59;101727.44;;;22.91;54.22
71974;BME280;59840;52.122;5.404;2023-06-10T08:19:26;101726.72;;;22.99;53.74
71974;BME280;59840;52.122;5.404;2023-06-10T08:21:52;101717.50;;;23.14;53.23
71974;BME280;59840;52.122;5.404;2023-06-10T08:24:19;101720.88;;;23.28;53.66
71974;BME280;59840;52.122;5.404;2023-06-10T08:26:46;101719.34;;;23.35;52.56
71974;BME280;59840;52.122;5.404;2023-06-10T08:29:13;101716.22;;;23.42;51.75
71974;BME280;59840;52.122;5.404;2023-06-10T08:31:43;101722.75;;;23.50;52.28
71974;BME280;59840;52.122;5.404;2023-06-10T08:34:10;101723.59;;;23.59;50.82
71974;BME280;59840;52.122;5.404;2023-06-10T08:36:38;101723.50;;;23.72;51.57
71974;BME280;59840;52.122;5.404;2023-06-10T08:39:04;101727.09;;;23.90;50.13
71974;BME280;59840;52.122;5.404;2023-06-10T08:41:35;101725.66;;;24.01;51.00
71974;BME280;59840;52.122;5.404;2023-06-10T08:44:25;101718.09;;;24.12;50.06
71974;BME280;59840;52.122;5.404;2023-06-10T08:46:56;101725.25;;;24.17;49.51
71974;BME280;59840;52.122;5.404;2023-06-10T08:49:26;101721.94;;;24.28;48.74
71974;BME280;59840;52.122;5.404;2023-06-10T08:51:59;101723.69;;;24.33;49.60
71974;BME280;59840;52.122;5.404;2023-06-10T08:54:32;101724.03;;;24.40;48.80
71974;BME280;59840;52.122;5.404;2023-06-10T08:57:02;101724.50;;;24.42;48.00
71974;BME280;59840;52.122;5.404;2023-06-10T08:59:30;101727.38;;;24.54;47.91
71974;BME280;59840;52.122;5.404;2023-06-10T09:01:57;101724.50;;;24.68;49.03
71974;BME280;59840;52.122;5.404;2023-06-10T09:04:24;101731.66;;;24.72;48.58
71974;BME280;59840;52.122;5.404;2023-06-10T09:06:52;101720.22;;;24.76;49.53
71974;BME280;59840;52.122;5.404;2023-06-10T09:09:19;101727.69;;;24.87;47.11
71974;BME280;59840;52.122;5.404;2023-06-10T09:11:46;101724.03;;;24.92;45.47
71974;BME280;59840;52.122;5.404;2023-06-10T09:14:13;101721.97;;;24.97;46.00
71974;BME280;59840;52.122;5.404;2023-06-10T09:16:41;101721.50;;;25.04;47.03
71974;BME280;59840;52.122;5.404;2023-06-10T09:19:08;101714.91;;;25.31;46.29
71974;BME280;59840;52.122;5.404;2023-06-10T09:21:35;101719.31;;;25.44;43.53
71974;BME280;59840;52.122;5.404;2023-06-10T09:24:05;101717.59;;;25.39;46.13
71974;BME280;59840;52.122;5.404;2023-06-10T09:26:32;101727.75;;;25.43;43.92
71974;BME280;59840;52.122;5.404;2023-06-10T09:29:07;101718.38;;;25.49;44.80
71974;BME280;59840;52.122;5.404;2023-06-10T09:31:36;101724.72;;;25.53;44.58
71974;BME280;59840;52.122;5.404;2023-06-10T09:34:25;101715.81;;;25.52;43.24
71974;BME280;59840;52.122;5.404;2023-06-10T09:36:51;101720.22;;;25.65;44.25
71974;BME280;59840;52.122;5.404;2023-06-10T09:39:19;101719.28;;;25.61;42.32
71974;BME280;59840;52.122;5.404;2023-06-10T09:41:46;101718.47;;;25.61;42.85
71974;BME280;59840;52.122;5.404;2023-06-10T09:46:41;101720.84;;;25.71;43.30
71974;BME280;59840;52.122;5.404;2023-06-10T09:49:08;101717.13;;;25.84;41.52
71974;BME280;59840;52.122;5.404;2023-06-10T09:51:34;101716.47;;;25.87;43.52
71974;BME280;59840;52.122;5.404;2023-06-10T09:54:04;101714.06;;;25.94;41.72
71974;BME280;59840;52.122;5.404;2023-06-10T09:56:35;101713.44;;;25.89;41.58
71974;BME280;59840;52.122;5.404;2023-06-10T09:59:03;101714.84;;;25.95;42.21
71974;BME280;59840;52.122;5.404;2023-06-10T10:01:32;101713.63;;;26.13;41.24
71974;BME280;59840;52.122;5.404;2023-06-10T10:04:00;101716.28;;;26.22;40.92
71974;BME280;59840;52.122;5.404;2023-06-10T10:06:27;101712.56;;;26.26;42.52
71974;BME280;59840;52.122;5.404;2023-06-10T10:08:55;101715.03;;;26.40;40.18
71974;BME280;59840;52.122;5.404;2023-06-10T10:11:23;101705.59;;;26.46;41.39
71974;BME280;59840;52.122;5.404;2023-06-10T10:13:52;101707.91;;;26.56;39.58
71974;BME280;59840;52.122;5.404;2023-06-10T10:16:29;101709.25;;;26.50;40.02
71974;BME280;59840;52.122;5.404;2023-06-10T10:19:04;101702.44;;;26.44;39.68
71974;BME280;59840;52.122;5.404;2023-06-10T10:21:38;101703.03;;;26.50;39.35
71974;BME280;59840;52.122;5.404;2023-06-10T10:24:33;101703.34;;;26.48;39.66
71974;BME280;59840;52.122;5.404;2023-06-10T10:27:07;101705.22;;;26.56;38.05
71974;BME280;59840;52.122;5.404;2023-06-10T10:29:39;101697.81;;;26.65;36.92
71974;BME280;59840;52.122;5.404;2023-06-10T10:32:07;101697.22;;;26.60;38.42
71974;BME280;59840;52.122;5.404;2023-06-10T10:37:14;101695.94;;;26.78;36.64
71974;BME280;59840;52.122;5.404;2023-06-10T10:39:41;101689.59;;;26.74;38.26
71974;BME280;59840;52.122;5.404;2023-06-10T10:42:08;101694.28;;;26.86;37.69
71974;BME280;59840;52.122;5.404;2023-06-10T10:44:37;101683.22;;;26.91;37.32
71974;BME280;59840;52.122;5.404;2023-06-10T10:47:10;101683.91;;;26.88;36.73
71974;BME280;59840;52.122;5.404;2023-06-10T10:49:37;101689.97;;;26.85;36.46
71974;BME280;59840;52.122;5.404;2023-06-10T10:52:11;101690.44;;;26.87;35.91
71974;BME280;59840;52.122;5.404;2023-06-10T10:54:43;101680.13;;;27.01;34.99
71974;BME280;59840;52.122;5.404;2023-06-10T10:57:16;101686.44;;;27.05;34.62
71974;BME280;59840;52.122;5.404;2023-06-10T11:05:06;101684.78;;;27.13;34.61
71974;BME280;59840;52.122;5.404;2023-06-10T11:07:34;101673.34;;;27.07;34.86
71974;BME280;59840;52.122;5.404;2023-06-10T11:10:06;101675.44;;;27.22;33.77
71974;BME280;59840;52.122;5.404;2023-06-10T11:15:13;101662.22;;;27.33;33.93
71974;BME280;59840;52.122;5.404;2023-06-10T11:18:09;101661.97;;;27.38;34.32
71974;BME280;59840;52.122;5.404;2023-06-10T11:20:51;101667.19;;;27.43;34.37
71974;BME280;59840;52.122;5.404;2023-06-10T11:33:57;101664.16;;;27.57;33.70
71974;BME280;59840;52.122;5.404;2023-06-10T11:36:25;101654.47;;;27.68;32.84
71974;BME280;59840;52.122;5.404;2023-06-10T11:38:55;101656.00;;;27.57;32.68
71974;BME280;59840;52.122;5.404;2023-06-10T11:41:26;101657.16;;;27.56;34.21
71974;BME280;59840;52.122;5.404;2023-06-10T11:43:53;101651.19;;;27.62;33.02
71974;BME280;59840;52.122;5.404;2023-06-10T11:46:23;101652.31;;;27.61;33.05
71974;BME280;59840;52.122;5.404;2023-06-10T11:48:55;101652.66;;;27.72;34.61
71974;BME280;59840;52.122;5.404;2023-06-10T11:51:26;101656.00;;;27.81;34.94
71974;BME280;59840;52.122;5.404;2023-06-10T11:53:53;101645.66;;;27.71;33.58
71974;BME280;59840;52.122;5.404;2023-06-10T11:56:26;101647.56;;;27.71;33.55
71974;BME280;59840;52.122;5.404;2023-06-10T11:58:58;101635.50;;;27.68;33.70
71974;BME280;59840;52.122;5.404;2023-06-10T12:01:26;101633.22;;;27.70;33.00
71974;BME280;59840;52.122;5.404;2023-06-10T12:03:59;101636.59;;;27.79;34.35
71974;BME280;59840;52.122;5.404;2023-06-10T12:06:26;101633.50;;;27.93;32.95
71974;BME280;59840;52.122;5.404;2023-06-10T12:08:54;101642.44;;;27.93;32.21
71974;BME280;59840;52.122;5.404;2023-06-10T12:11:25;101629.13;;;27.88;31.89
71974;BME280;59840;52.122;5.404;2023-06-10T12:13:53;101635.22;;;27.85;32.33
71974;BME280;59840;52.122;5.404;2023-06-10T12:16:19;101628.56;;;27.83;32.05
71974;BME280;59840;52.122;5.404;2023-06-10T12:18:46;101621.22;;;27.83;32.27
71974;BME280;59840;52.122;5.404;2023-06-10T12:21:20;101618.94;;;27.85;32.52
71974;BME280;59840;52.122;5.404;2023-06-10T12:24:03;101618.72;;;27.90;33.17
71974;BME280;59840;52.122;5.404;2023-06-10T12:26:46;101613.00;;;28.08;33.92
71974;BME280;59840;52.122;5.404;2023-06-10T12:34:39;101614.16;;;28.07;31.94
71974;BME280;59840;52.122;5.404;2023-06-10T12:37:10;101616.31;;;28.01;33.16
71974;BME280;59840;52.122;5.404;2023-06-10T12:39:41;101622.44;;;27.98;32.70
71974;BME280;59840;52.122;5.404;2023-06-10T12:42:11;101608.63;;;28.03;32.68
71974;BME280;59840;52.122;5.404;2023-06-10T12:44:40;101617.22;;;28.05;32.04
71974;BME280;59840;52.122;5.404;2023-06-10T12:47:08;101616.50;;;28.08;31.61
71974;BME280;59840;52.122;5.404;2023-06-10T12:49:36;101613.56;;;28.13;32.32
71974;BME280;59840;52.122;5.404;2023-06-10T12:52:04;101617.28;;;28.21;31.34
71974;BME280;59840;52.122;5.404;2023-06-10T12:54:31;101610.03;;;28.25;31.35
71974;BME280;59840;52.122;5.404;2023-06-10T12:56:58;101614.19;;;28.34;32.45
71974;BME280;59840;52.122;5.404;2023-06-10T12:59:26;101608.59;;;28.43;31.47
71974;BME280;59840;52.122;5.404;2023-06-10T13:01:54;101623.56;;;28.37;32.33
71974;BME280;59840;52.122;5.404;2023-06-10T13:04:21;101618.59;;;28.39;32.02
71974;BME280;59840;52.122;5.404;2023-06-10T13:06:48;101602.34;;;28.27;31.32
71974;BME280;59840;52.122;5.404;2023-06-10T13:09:15;101611.63;;;28.26;31.68
71974;BME280;59840;52.122;5.404;2023-06-10T13:11:42;101608.66;;;28.31;31.53
71974;BME280;59840;52.122;5.404;2023-06-10T13:14:10;101600.44;;;28.43;31.47
71974;BME280;59840;52.122;5.404;2023-06-10T13:16:36;101594.31;;;28.46;31.18
71974;BME280;59840;52.122;5.404;2023-06-10T13:19:05;101592.94;;;28.52;31.23
71974;BME280;59840;52.122;5.404;2023-06-10T13:21:32;101598.03;;;28.54;30.32
71974;BME280;59840;52.122;5.404;2023-06-10T13:24:00;101600.28;;;28.52;30.61
71974;BME280;59840;52.122;5.404;2023-06-10T13:26:27;101605.28;;;28.50;29.90